createdAt,value
2018-03-16T00:00:46.553Z,7.80
2018-03-16T00:03:14.152Z,7.80
2018-03-16T00:05:42.461Z,7.80
2018-03-16T00:08:10.036Z,7.80
2018-03-16T00:10:37.701Z,7.90
2018-03-16T00:13:05.362Z,7.90
2018-03-16T00:15:32.904Z,7.80
2018-03-16T00:18:00.454Z,7.80
2018-03-16T00:20:28.133Z,7.80
2018-03-16T00:22:55.664Z,7.90
2018-03-16T00:25:24.093Z,7.90
2018-03-16T00:27:51.629Z,7.90
2018-03-16T00:30:19.202Z,7.90
2018-03-16T00:32:46.753Z,7.80
2018-03-16T00:35:14.322Z,7.90
2018-03-16T00:37:41.884Z,7.80
2018-03-16T00:40:09.463Z,7.70
2018-03-16T00:42:37.025Z,7.70
2018-03-16T00:45:04.624Z,7.70
2018-03-16T00:47:32.961Z,7.70
2018-03-16T00:50:00.585Z,7.70
2018-03-16T00:52:28.159Z,7.70
2018-03-16T00:54:55.701Z,7.70
2018-03-16T00:57:23.271Z,7.70
2018-03-16T00:59:50.851Z,7.70
2018-03-16T01:02:18.413Z,7.60
2018-03-16T01:04:45.981Z,7.60
2018-03-16T01:07:13.587Z,7.70
2018-03-16T01:09:41.105Z,7.60
2018-03-16T01:12:08.731Z,7.60
2018-03-16T01:14:36.279Z,7.50
2018-03-16T01:17:03.853Z,7.50
2018-03-16T01:19:31.526Z,7.50
2018-03-16T01:21:59.130Z,7.50
2018-03-16T01:24:26.707Z,7.50
2018-03-16T01:26:55.296Z,7.50
2018-03-16T01:29:22.882Z,7.50
2018-03-16T01:31:50.461Z,7.50
2018-03-16T01:34:18.017Z,7.50
2018-03-16T01:36:45.581Z,7.50
2018-03-16T01:39:13.165Z,7.50
2018-03-16T01:41:40.723Z,7.60
2018-03-16T01:44:08.349Z,7.60
2018-03-16T01:46:35.895Z,7.60
2018-03-16T01:49:03.576Z,7.60
2018-03-16T01:51:31.184Z,7.60
2018-03-16T01:53:58.732Z,7.60
2018-03-16T01:56:26.316Z,7.60
2018-03-16T01:58:54.673Z,7.50
2018-03-16T02:01:22.225Z,7.50
2018-03-16T02:03:49.825Z,7.60
2018-03-16T02:06:17.382Z,7.50
2018-03-16T02:08:45.694Z,7.60
2018-03-16T02:11:13.250Z,7.60
2018-03-16T02:13:40.816Z,7.60
2018-03-16T02:16:08.557Z,7.60
2018-03-16T02:18:36.145Z,7.60
2018-03-16T02:21:03.693Z,7.50
2018-03-16T02:23:31.261Z,7.60
2018-03-16T02:25:58.821Z,7.50
2018-03-16T02:28:26.372Z,7.60
2018-03-16T02:30:53.945Z,7.60
2018-03-16T02:33:21.493Z,7.60
2018-03-16T02:35:49.079Z,7.60
2018-03-16T02:38:16.608Z,7.50
2018-03-16T02:40:44.184Z,7.50
2018-03-16T02:43:11.762Z,7.50
2018-03-16T02:45:39.320Z,7.50
2018-03-16T02:48:06.905Z,7.50
2018-03-16T02:50:34.459Z,7.40
2018-03-16T02:53:02.039Z,7.40
2018-03-16T02:55:30.347Z,7.40
2018-03-16T02:57:57.914Z,7.40
2018-03-16T03:00:25.466Z,7.40
2018-03-16T03:02:53.111Z,7.30
2018-03-16T03:05:20.670Z,7.30
2018-03-16T03:07:48.290Z,7.30
2018-03-16T03:10:15.857Z,7.30
2018-03-16T03:12:44.393Z,7.30
2018-03-16T03:15:11.948Z,7.30
2018-03-16T03:17:39.586Z,7.30
2018-03-16T03:20:07.896Z,7.30
2018-03-16T03:22:35.500Z,7.30
2018-03-16T03:25:03.054Z,7.30
2018-03-16T03:27:30.605Z,7.30
2018-03-16T03:29:58.178Z,7.30
2018-03-16T03:32:27.239Z,7.30
2018-03-16T03:34:54.805Z,7.40
2018-03-16T03:37:22.356Z,7.40
2018-03-16T03:39:49.928Z,7.40
2018-03-16T03:42:17.485Z,7.40
2018-03-16T03:44:45.073Z,7.40
2018-03-16T03:47:12.650Z,7.40
2018-03-16T03:49:40.990Z,7.40
2018-03-16T03:52:08.549Z,7.40
2018-03-16T03:54:36.122Z,7.40
2018-03-16T03:57:03.674Z,7.40
2018-03-16T03:59:31.418Z,7.40
2018-03-16T04:01:58.947Z,7.50
2018-03-16T04:04:26.550Z,7.40
2018-03-16T04:06:54.090Z,7.40
2018-03-16T04:09:21.657Z,7.40
2018-03-16T04:11:50.034Z,7.50
2018-03-16T04:14:17.666Z,7.50
2018-03-16T04:16:45.234Z,7.50
2018-03-16T04:19:12.781Z,7.50
2018-03-16T04:21:41.314Z,7.50
2018-03-16T04:24:08.864Z,7.50
2018-03-16T04:26:36.448Z,7.50
2018-03-16T04:29:04.001Z,7.60
2018-03-16T04:31:31.553Z,7.60
2018-03-16T04:33:59.149Z,7.60
2018-03-16T04:36:26.701Z,7.60
2018-03-16T04:38:54.247Z,7.70
2018-03-16T04:41:21.806Z,7.70
2018-03-16T04:43:50.225Z,7.70
2018-03-16T04:46:17.814Z,7.70
2018-03-16T04:48:45.399Z,7.70
2018-03-16T04:51:12.937Z,7.70
2018-03-16T04:53:40.561Z,7.70
2018-03-16T04:56:08.977Z,7.80
2018-03-16T04:58:36.580Z,7.80
2018-03-16T05:01:04.138Z,7.70
2018-03-16T05:03:31.705Z,7.80
2018-03-16T05:06:00.810Z,7.80
2018-03-16T05:08:29.117Z,7.80
2018-03-16T05:10:56.699Z,7.70
2018-03-16T05:13:24.265Z,7.80
2018-03-16T05:15:51.857Z,7.80
2018-03-16T05:18:19.462Z,7.70
2018-03-16T05:20:47.021Z,7.70
2018-03-16T05:23:14.580Z,7.70
2018-03-16T05:25:42.166Z,7.80
2018-03-16T05:28:09.732Z,7.70
2018-03-16T05:30:37.351Z,7.80
2018-03-16T05:33:05.641Z,7.80
2018-03-16T05:35:33.209Z,7.70
2018-03-16T05:38:00.772Z,7.80
2018-03-16T05:40:28.346Z,7.80
2018-03-16T05:42:55.902Z,7.80
2018-03-16T05:45:23.465Z,7.80
2018-03-16T05:47:51.037Z,7.90
2018-03-16T05:50:18.636Z,7.90
2018-03-16T05:52:46.974Z,7.90
2018-03-16T05:55:14.543Z,7.90
2018-03-16T05:57:42.115Z,7.90
2018-03-16T06:00:09.721Z,7.90
2018-03-16T06:02:37.310Z,7.90
2018-03-16T06:05:04.848Z,7.90
2018-03-16T06:07:32.439Z,7.90
2018-03-16T06:09:59.973Z,7.90
2018-03-16T06:12:27.553Z,7.90
2018-03-16T06:14:55.105Z,8.00
2018-03-16T06:17:23.470Z,8.00
2018-03-16T06:19:51.131Z,8.00
2018-03-16T06:22:18.681Z,8.00
2018-03-16T06:24:46.323Z,8.00
2018-03-16T06:27:14.645Z,8.20
2018-03-16T06:29:42.283Z,8.10
2018-03-16T06:32:09.831Z,8.10
2018-03-16T06:34:37.403Z,8.20
2018-03-16T06:37:05.002Z,8.20
2018-03-16T06:39:32.651Z,8.20
2018-03-16T06:42:00.213Z,8.20
2018-03-16T06:44:27.766Z,8.20
2018-03-16T06:46:55.321Z,8.20
2018-03-16T06:49:22.881Z,8.30
2018-03-16T06:51:50.445Z,8.30
2018-03-16T06:54:18.005Z,8.40
2018-03-16T06:56:45.561Z,8.40
2018-03-16T06:59:14.143Z,8.40
2018-03-16T07:01:41.693Z,8.50
2018-03-16T07:04:09.246Z,8.60
2018-03-16T07:06:36.822Z,8.70
2018-03-16T07:09:06.444Z,8.80
2018-03-16T07:11:34.025Z,8.80
2018-03-16T07:14:01.605Z,8.80
2018-03-16T07:16:29.930Z,8.80
2018-03-16T07:18:57.490Z,8.80
2018-03-16T07:21:25.040Z,8.90
2018-03-16T07:23:53.138Z,9.00
2018-03-16T07:26:20.708Z,9.00
2018-03-16T07:28:48.285Z,9.10
2018-03-16T07:31:15.886Z,9.10
2018-03-16T07:33:43.417Z,9.10
2018-03-16T07:36:11.857Z,9.10
2018-03-16T07:38:39.402Z,9.10
2018-03-16T07:41:06.968Z,9.20
2018-03-16T07:43:34.522Z,9.20
2018-03-16T07:46:02.986Z,9.10
2018-03-16T07:48:30.578Z,9.10
2018-03-16T07:50:58.135Z,9.10
2018-03-16T07:53:25.702Z,9.00
2018-03-16T07:55:53.273Z,9.00
2018-03-16T07:58:21.612Z,9.00
2018-03-16T08:00:49.214Z,9.20
2018-03-16T08:03:17.857Z,9.20
2018-03-16T08:05:45.432Z,9.20
2018-03-16T08:08:14.011Z,9.10
2018-03-16T08:10:41.577Z,9.10
2018-03-16T08:13:09.139Z,9.20
2018-03-16T08:15:36.729Z,9.10
2018-03-16T08:18:04.317Z,9.10
2018-03-16T08:20:31.897Z,9.10
2018-03-16T08:22:59.461Z,9.10
2018-03-16T08:25:27.138Z,9.10
2018-03-16T08:27:54.706Z,9.10
2018-03-16T08:30:23.164Z,9.20
2018-03-16T08:32:50.739Z,9.20
2018-03-16T08:35:18.319Z,9.20
2018-03-16T08:37:45.878Z,9.20
2018-03-16T08:40:13.494Z,9.20
2018-03-16T08:42:41.073Z,9.20
2018-03-16T08:45:08.698Z,9.30
2018-03-16T08:47:37.068Z,9.40
2018-03-16T08:50:05.402Z,9.50
2018-03-16T08:52:32.979Z,9.40
2018-03-16T08:55:00.539Z,9.60
2018-03-16T08:57:28.089Z,9.70
2018-03-16T08:59:55.677Z,9.80
2018-03-16T09:02:24.038Z,9.90
2018-03-16T09:04:52.392Z,9.80
2018-03-16T09:07:19.961Z,9.90
2018-03-16T09:09:47.549Z,9.90
2018-03-16T09:12:15.113Z,9.90
2018-03-16T09:14:42.850Z,9.90
2018-03-16T09:17:10.401Z,10.00
2018-03-16T09:19:37.978Z,10.00
2018-03-16T09:22:05.561Z,10.00
2018-03-16T09:24:34.064Z,10.00
2018-03-16T09:27:01.648Z,9.90
2018-03-16T09:29:29.377Z,9.90
2018-03-16T09:31:56.941Z,9.90
2018-03-16T09:34:25.356Z,9.90
2018-03-16T09:36:52.965Z,9.90
2018-03-16T09:39:20.625Z,10.00
2018-03-16T09:41:48.186Z,10.00
2018-03-16T09:44:15.795Z,10.00
2018-03-16T09:46:43.347Z,10.00
2018-03-16T09:49:10.924Z,9.80
2018-03-16T09:51:38.514Z,9.80
2018-03-16T09:54:06.078Z,9.80
2018-03-16T09:56:33.654Z,9.90
2018-03-16T09:59:01.206Z,9.90
2018-03-16T10:01:28.760Z,10.10
2018-03-16T10:03:56.561Z,10.20
2018-03-16T10:06:24.139Z,10.20
2018-03-16T10:08:51.698Z,10.30
2018-03-16T10:11:19.410Z,10.30
2018-03-16T10:13:46.929Z,10.40
2018-03-16T10:16:14.489Z,10.60
2018-03-16T10:18:42.053Z,10.60
2018-03-16T10:21:09.650Z,10.70
2018-03-16T10:23:37.197Z,10.70
2018-03-16T10:26:04.825Z,10.60
2018-03-16T10:28:32.405Z,10.70
2018-03-16T10:30:59.973Z,10.80
2018-03-16T10:33:27.705Z,10.80
2018-03-16T10:35:55.276Z,10.70
2018-03-16T10:38:22.860Z,10.70
2018-03-16T10:40:50.439Z,10.70
2018-03-16T10:43:18.014Z,10.80
2018-03-16T10:45:46.501Z,10.90
2018-03-16T10:48:14.846Z,10.90
2018-03-16T10:50:42.431Z,10.90
2018-03-16T10:53:10.749Z,10.80
2018-03-16T10:55:38.331Z,10.80
2018-03-16T10:58:05.893Z,10.80
2018-03-16T11:00:39.125Z,10.90
2018-03-16T11:03:07.507Z,10.90
2018-03-16T11:05:41.377Z,10.90
2018-03-16T11:08:08.957Z,10.90
2018-03-16T11:10:36.512Z,10.80
2018-03-16T11:13:04.105Z,10.70
2018-03-16T11:15:32.545Z,10.70
2018-03-16T11:18:00.112Z,10.60
2018-03-16T11:20:27.676Z,10.70
2018-03-16T11:22:55.261Z,10.70
2018-03-16T11:25:23.594Z,10.60
2018-03-16T11:27:51.167Z,10.60
2018-03-16T11:30:18.753Z,10.60
2018-03-16T11:32:47.069Z,10.70
2018-03-16T11:35:14.656Z,10.70
2018-03-16T11:37:42.230Z,10.80
2018-03-16T11:40:09.803Z,10.80
2018-03-16T11:42:38.197Z,10.70
2018-03-16T11:45:06.577Z,10.60
2018-03-16T11:47:34.981Z,10.70
2018-03-16T11:50:02.593Z,10.70
2018-03-16T11:52:30.188Z,10.70
2018-03-16T11:54:57.783Z,10.80
2018-03-16T11:57:25.354Z,10.80
2018-03-16T11:59:52.944Z,10.90
2018-03-16T12:02:20.486Z,10.90
2018-03-16T12:04:48.105Z,10.90
2018-03-16T12:07:15.737Z,11.00
2018-03-16T12:09:44.067Z,11.10
2018-03-16T12:12:11.645Z,11.00
2018-03-16T12:14:39.193Z,11.10
2018-03-16T12:17:06.869Z,11.10
2018-03-16T12:19:35.184Z,11.00
2018-03-16T12:22:02.776Z,11.00
2018-03-16T12:24:30.326Z,11.00
2018-03-16T12:26:57.918Z,11.00
2018-03-16T12:29:25.514Z,11.00
2018-03-16T12:31:53.079Z,11.20
2018-03-16T12:34:21.393Z,11.20
2018-03-16T12:36:48.976Z,11.20
2018-03-16T12:39:21.611Z,11.20
2018-03-16T12:41:49.197Z,11.10
2018-03-16T12:44:16.769Z,11.10
2018-03-16T12:46:44.387Z,11.10
2018-03-16T12:49:12.705Z,11.20
2018-03-16T12:51:42.268Z,11.20
2018-03-16T12:54:08.637Z,11.30
2018-03-16T12:56:36.221Z,11.20
2018-03-16T12:59:03.783Z,11.20
2018-03-16T13:01:31.362Z,11.20
2018-03-16T13:03:59.724Z,11.30
2018-03-16T13:06:27.277Z,11.30
2018-03-16T13:08:54.873Z,11.40
2018-03-16T13:11:23.198Z,11.80
2018-03-16T13:13:50.979Z,11.80
2018-03-16T13:16:18.555Z,11.70
2018-03-16T13:18:46.133Z,11.50
2018-03-16T13:21:14.474Z,11.40
2018-03-16T13:23:42.055Z,11.40
2018-03-16T13:26:09.773Z,11.30
2018-03-16T13:28:37.522Z,11.20
2018-03-16T13:31:05.105Z,11.10
2018-03-16T13:33:32.663Z,10.90
2018-03-16T13:36:00.241Z,10.90
2018-03-16T13:38:27.831Z,10.90
2018-03-16T13:40:58.437Z,10.80
2018-03-16T13:43:25.989Z,10.80
2018-03-16T13:45:53.584Z,10.80
2018-03-16T13:48:21.135Z,10.70
2018-03-16T13:50:48.732Z,10.60
2018-03-16T13:53:16.341Z,10.60
2018-03-16T13:55:43.922Z,10.60
2018-03-16T13:58:12.269Z,10.40
2018-03-16T14:00:39.828Z,10.40
2018-03-16T14:03:07.446Z,10.40
2018-03-16T14:05:35.034Z,10.40
2018-03-16T14:08:02.623Z,10.50
2018-03-16T14:10:30.206Z,10.50
2018-03-16T14:12:57.848Z,10.50
2018-03-16T14:15:25.418Z,10.40
2018-03-16T14:17:53.140Z,10.40
2018-03-16T14:20:20.698Z,10.30
2018-03-16T14:22:48.352Z,10.30
2018-03-16T14:25:15.918Z,10.30
2018-03-16T14:27:43.576Z,10.20
2018-03-16T14:30:11.145Z,10.20
2018-03-16T14:32:38.721Z,10.10
2018-03-16T14:35:06.305Z,10.20
2018-03-16T14:37:33.854Z,10.20
2018-03-16T14:40:01.419Z,10.20
2018-03-16T14:42:28.971Z,10.10
2018-03-16T14:44:56.573Z,10.10
2018-03-16T14:47:24.916Z,10.00
2018-03-16T14:49:54.046Z,9.90
2018-03-16T14:52:22.357Z,9.80
2018-03-16T14:54:49.937Z,9.80
2018-03-16T14:57:17.491Z,9.70
2018-03-16T14:59:45.231Z,9.70
2018-03-16T15:02:12.790Z,9.70
2018-03-16T15:04:40.356Z,9.70
2018-03-16T15:07:07.928Z,9.60
2018-03-16T15:09:35.540Z,9.50
2018-03-16T15:12:03.911Z,9.40
2018-03-16T15:14:31.473Z,9.40
2018-03-16T15:16:59.797Z,9.20
2018-03-16T15:19:27.461Z,9.20
2018-03-16T15:21:55.113Z,9.20
2018-03-16T15:24:22.661Z,9.10
2018-03-16T15:26:50.449Z,9.00
2018-03-16T15:29:18.009Z,9.00
2018-03-16T15:31:45.582Z,8.90
2018-03-16T15:34:13.152Z,8.80
2018-03-16T15:36:40.715Z,8.70
2018-03-16T15:39:08.351Z,8.70
2018-03-16T15:41:35.912Z,8.70
2018-03-16T15:44:03.556Z,8.60
2018-03-16T15:46:31.142Z,8.50
2018-03-16T15:48:58.696Z,8.50
2018-03-16T15:51:26.307Z,8.40
2018-03-16T15:53:53.814Z,8.40
2018-03-16T15:56:22.337Z,8.50
2018-03-16T15:58:49.914Z,8.40
2018-03-16T16:01:18.234Z,8.30
2018-03-16T16:03:45.850Z,8.30
2018-03-16T16:06:13.434Z,8.40
2018-03-16T16:08:40.988Z,8.30
2018-03-16T16:11:08.548Z,8.30
2018-03-16T16:13:36.895Z,8.10
2018-03-16T16:16:04.450Z,8.10
2018-03-16T16:18:32.028Z,8.10
2018-03-16T16:21:00.448Z,8.00
2018-03-16T16:23:28.030Z,8.00
2018-03-16T16:25:55.605Z,8.00
2018-03-16T16:28:23.269Z,8.00
2018-03-16T16:30:50.843Z,7.90
2018-03-16T16:33:18.426Z,7.80
2018-03-16T16:35:46.014Z,7.80
2018-03-16T16:38:15.051Z,7.80
2018-03-16T16:40:42.613Z,7.70
2018-03-16T16:43:10.185Z,7.70
2018-03-16T16:45:39.520Z,7.50
2018-03-16T16:48:07.387Z,7.50
2018-03-16T16:50:34.947Z,7.50
2018-03-16T16:53:02.622Z,7.30
2018-03-16T16:55:30.199Z,7.30
2018-03-16T16:57:57.810Z,7.30
2018-03-16T17:00:26.167Z,7.10
2018-03-16T17:02:53.739Z,7.10
2018-03-16T17:05:22.087Z,7.00
2018-03-16T17:07:49.645Z,7.00
2018-03-16T17:10:17.233Z,6.80
2018-03-16T17:12:46.357Z,6.80
2018-03-16T17:15:13.954Z,6.80
2018-03-16T17:17:41.525Z,6.80
2018-03-16T17:20:09.113Z,6.70
2018-03-16T17:22:37.464Z,6.50
2018-03-16T17:25:05.059Z,6.50
2018-03-16T17:27:33.428Z,6.60
2018-03-16T17:30:01.129Z,6.60
2018-03-16T17:32:28.701Z,6.50
2018-03-16T17:34:56.289Z,6.50
2018-03-16T17:37:23.878Z,6.40
2018-03-16T17:39:52.225Z,6.40
2018-03-16T17:42:20.606Z,6.40
2018-03-16T17:44:48.159Z,6.30
2018-03-16T17:47:15.736Z,6.30
2018-03-16T17:49:44.166Z,6.20
2018-03-16T17:52:11.745Z,6.20
2018-03-16T17:54:39.285Z,6.20
2018-03-16T17:57:06.879Z,6.20
2018-03-16T17:59:34.434Z,6.10
2018-03-16T18:02:02.005Z,6.00
2018-03-16T18:04:29.669Z,6.00
2018-03-16T18:06:57.222Z,5.90
2018-03-16T18:09:24.815Z,5.80
2018-03-16T18:11:53.130Z,5.80
2018-03-16T18:14:20.823Z,5.80
2018-03-16T18:16:48.384Z,5.70
2018-03-16T18:19:15.992Z,5.70
2018-03-16T18:21:43.674Z,5.70
2018-03-16T18:24:11.228Z,5.70
2018-03-16T18:26:38.805Z,5.80
2018-03-16T18:29:06.392Z,5.70
2018-03-16T18:31:33.971Z,5.70
2018-03-16T18:34:01.534Z,5.70
2018-03-16T18:36:29.081Z,5.70
2018-03-16T18:38:56.627Z,5.60
2018-03-16T18:41:24.254Z,5.60
2018-03-16T18:43:51.916Z,5.50
2018-03-16T18:46:19.478Z,5.60
2018-03-16T18:48:47.200Z,5.60
2018-03-16T18:51:15.516Z,5.60
2018-03-16T18:53:43.147Z,5.60
2018-03-16T18:56:11.472Z,5.50
2018-03-16T18:58:38.994Z,5.50
2018-03-16T19:01:06.539Z,5.50
2018-03-16T19:03:34.886Z,5.50
2018-03-16T19:06:02.608Z,5.50
2018-03-16T19:08:30.195Z,5.50
2018-03-16T19:10:58.470Z,5.70
2018-03-16T19:13:26.041Z,5.60
2018-03-16T19:15:53.540Z,5.50
2018-03-16T19:18:21.858Z,5.50
2018-03-16T19:20:49.457Z,5.40
2018-03-16T19:23:17.147Z,5.50
2018-03-16T19:25:45.481Z,5.40
2018-03-16T19:28:13.069Z,5.40
2018-03-16T19:30:40.614Z,5.40
2018-03-16T19:33:08.206Z,5.40
2018-03-16T19:35:36.511Z,5.30
2018-03-16T19:38:04.079Z,5.20
2018-03-16T19:40:31.643Z,5.20
2018-03-16T19:42:59.178Z,5.30
2018-03-16T19:45:26.858Z,5.30
2018-03-16T19:47:54.426Z,5.30
2018-03-16T19:50:22.027Z,5.30
2018-03-16T19:52:49.556Z,5.30
2018-03-16T19:55:17.176Z,5.30
2018-03-16T19:57:44.729Z,5.20
2018-03-16T20:00:13.069Z,5.20
2018-03-16T20:02:40.640Z,5.20
2018-03-16T20:05:08.199Z,5.10
2018-03-16T20:07:35.813Z,5.20
2018-03-16T20:10:03.524Z,5.10
2018-03-16T20:12:31.074Z,5.10
2018-03-16T20:14:58.676Z,5.00
2018-03-16T20:17:27.003Z,5.10
2018-03-16T20:19:54.591Z,5.00
2018-03-16T20:22:22.221Z,5.00
2018-03-16T20:24:49.844Z,5.00
2018-03-16T20:27:17.397Z,5.00
2018-03-16T20:29:44.994Z,5.00
2018-03-16T20:32:12.586Z,5.00
2018-03-16T20:34:40.926Z,5.00
2018-03-16T20:37:08.534Z,5.00
2018-03-16T20:39:36.103Z,5.00
2018-03-16T20:42:03.695Z,5.00
2018-03-16T20:44:31.238Z,5.00
2018-03-16T20:46:58.777Z,4.90
2018-03-16T20:49:27.117Z,4.90
2018-03-16T20:51:54.702Z,4.90
2018-03-16T20:54:22.274Z,4.90
2018-03-16T20:56:49.856Z,4.80
2018-03-16T20:59:18.190Z,4.80
2018-03-16T21:01:45.725Z,4.70
2018-03-16T21:04:13.333Z,4.70
2018-03-16T21:06:40.950Z,4.70
2018-03-16T21:09:08.532Z,4.70
2018-03-16T21:11:36.077Z,4.70
2018-03-16T21:14:03.656Z,4.80
2018-03-16T21:16:31.216Z,4.80
2018-03-16T21:18:58.757Z,4.80
2018-03-16T21:21:26.330Z,4.80
2018-03-16T21:23:53.893Z,4.80
2018-03-16T21:26:21.468Z,4.90
2018-03-16T21:28:49.017Z,4.80
2018-03-16T21:31:16.710Z,4.80
2018-03-16T21:33:45.054Z,4.60
2018-03-16T21:36:12.629Z,4.60
2018-03-16T21:38:40.235Z,4.60
2018-03-16T21:41:07.855Z,4.60
2018-03-16T21:43:35.389Z,4.60
2018-03-16T21:46:03.019Z,4.60
2018-03-16T21:48:30.568Z,4.50
2018-03-16T21:50:58.157Z,4.50
2018-03-16T21:53:25.763Z,4.40
2018-03-16T21:55:53.310Z,4.40
2018-03-16T21:58:22.455Z,4.40
2018-03-16T22:00:50.021Z,4.40
2018-03-16T22:03:17.616Z,4.50
2018-03-16T22:05:45.270Z,4.50
2018-03-16T22:08:12.829Z,4.40
2018-03-16T22:10:40.493Z,4.40
2018-03-16T22:13:08.123Z,4.50
2018-03-16T22:15:35.705Z,4.50
2018-03-16T22:18:03.241Z,4.50
2018-03-16T22:20:30.837Z,4.50
2018-03-16T22:22:58.429Z,4.40
2018-03-16T22:25:26.806Z,4.30
2018-03-16T22:27:55.404Z,4.40
2018-03-16T22:30:23.758Z,4.30
2018-03-16T22:32:51.322Z,4.30
2018-03-16T22:35:18.906Z,4.20
2018-03-16T22:37:47.273Z,4.10
2018-03-16T22:40:15.595Z,4.10
2018-03-16T22:42:43.287Z,4.10
2018-03-16T22:45:10.898Z,4.10
2018-03-16T22:47:38.458Z,4.20
2018-03-16T22:50:06.127Z,4.20
2018-03-16T22:52:33.674Z,4.20
2018-03-16T22:55:01.237Z,4.20
2018-03-16T22:57:28.864Z,4.10
2018-03-16T22:59:56.437Z,4.20
2018-03-16T23:02:24.762Z,4.20
2018-03-16T23:04:52.360Z,4.20
2018-03-16T23:07:19.919Z,4.20
2018-03-16T23:09:47.499Z,4.20
2018-03-16T23:12:15.817Z,4.30
2018-03-16T23:14:43.393Z,4.30
2018-03-16T23:17:11.025Z,4.30
2018-03-16T23:19:38.616Z,4.30
2018-03-16T23:22:06.300Z,4.20
2018-03-16T23:24:33.926Z,4.10
2018-03-16T23:27:01.479Z,4.10
2018-03-16T23:29:29.034Z,4.10
2018-03-16T23:31:56.608Z,4.10
2018-03-16T23:34:24.167Z,4.10
2018-03-16T23:36:51.748Z,4.00
2018-03-16T23:39:19.292Z,4.00
2018-03-16T23:41:46.870Z,4.00
2018-03-16T23:44:14.447Z,3.90
2018-03-16T23:46:42.046Z,4.00
2018-03-16T23:49:09.597Z,3.90
2018-03-16T23:51:37.172Z,3.90
2018-03-16T23:54:04.750Z,3.90
2018-03-16T23:56:32.324Z,3.90
2018-03-16T23:59:00.058Z,3.90
